createdAt,value
2023-04-06T00:00:36.008Z,13.65
2023-04-06T00:05:37.576Z,13.35
2023-04-06T00:10:39.226Z,17.60
2023-04-06T00:15:40.782Z,14.85
2023-04-06T00:20:42.376Z,14.52
2023-04-06T00:25:43.955Z,11.55
2023-04-06T00:30:45.471Z,14.38
2023-04-06T00:35:47.046Z,13.82
2023-04-06T00:40:48.703Z,18.30
2023-04-06T00:45:50.470Z,12.48
2023-04-06T00:50:52.169Z,14.35
2023-04-06T00:55:53.814Z,12.43
2023-04-06T01:00:57.764Z,11.85
2023-04-06T01:05:59.939Z,13.68
2023-04-06T01:11:09.477Z,16.52
2023-04-06T01:16:12.309Z,10.38
2023-04-06T01:21:38.562Z,13.65
2023-04-06T01:27:15.710Z,10.52
2023-04-06T01:32:23.439Z,11.35
2023-04-06T01:37:27.445Z,13.30
2023-04-06T01:42:32.275Z,13.00
2023-04-06T01:47:34.590Z,12.85
2023-04-06T01:52:36.560Z,10.93
2023-04-06T01:57:38.565Z,12.35
2023-04-06T02:02:49.057Z,13.90
2023-04-06T02:07:57.021Z,9.63
2023-04-06T02:13:06.578Z,11.27
2023-04-06T02:18:09.668Z,10.93
2023-04-06T02:23:12.492Z,16.25
2023-04-06T02:28:15.112Z,11.35
2023-04-06T02:33:16.951Z,12.85
2023-04-06T02:38:21.463Z,12.77
2023-04-06T02:43:23.609Z,12.77
2023-04-06T02:48:30.446Z,15.50
2023-04-06T02:53:32.515Z,14.70
2023-04-06T02:58:35.288Z,15.60
2023-04-06T03:03:37.574Z,14.70
2023-04-06T03:08:45.936Z,17.65
2023-04-06T03:13:48.697Z,15.77
2023-04-06T03:18:50.614Z,14.02
2023-04-06T03:23:53.348Z,14.35
2023-04-06T03:28:55.017Z,13.98
2023-04-06T03:39:07.510Z,17.00
2023-04-06T03:44:13.816Z,13.95
2023-04-06T03:49:15.745Z,14.38
2023-04-06T03:54:21.608Z,18.97
2023-04-06T03:59:23.491Z,17.70
2023-04-06T04:04:28.387Z,16.70
2023-04-06T04:09:30.019Z,15.77
2023-04-06T04:14:32.521Z,18.40
2023-04-06T04:19:34.706Z,20.58
2023-04-06T04:24:37.179Z,14.77
2023-04-06T04:29:39.037Z,13.18
2023-04-06T04:34:44.264Z,15.93
2023-04-06T04:39:54.333Z,14.18
2023-04-06T04:44:56.020Z,18.42
2023-04-06T04:50:08.983Z,13.10
2023-04-06T04:55:14.905Z,16.33
2023-04-06T05:00:19.504Z,12.65
2023-04-06T05:05:21.437Z,12.68
2023-04-06T05:10:25.016Z,11.93
2023-04-06T05:20:40.576Z,11.40
2023-04-06T05:25:43.742Z,13.25
2023-04-06T05:30:54.048Z,12.05
2023-04-06T05:35:56.937Z,17.15
2023-04-06T05:40:59.016Z,13.00
2023-04-06T05:46:05.337Z,11.50
2023-04-06T05:51:07.029Z,9.73
2023-04-06T05:56:17.773Z,10.23
2023-04-06T06:01:20.291Z,10.25
2023-04-06T06:06:23.095Z,11.05
2023-04-06T06:11:40.037Z,8.65
2023-04-06T06:16:42.460Z,11.48
2023-04-06T06:21:47.266Z,9.32
2023-04-06T06:26:50.274Z,11.18
2023-04-06T06:31:54.082Z,10.77
2023-04-06T06:36:56.220Z,12.68
2023-04-06T06:41:58.208Z,10.18
2023-04-06T06:47:19.000Z,10.98
2023-04-06T06:52:20.720Z,14.77
2023-04-06T06:57:22.389Z,8.63
2023-04-06T07:02:25.119Z,10.68
2023-04-06T07:07:27.226Z,9.90
2023-04-06T07:12:29.044Z,10.55
2023-04-06T07:17:30.707Z,11.27
2023-04-06T07:22:32.627Z,7.60
2023-04-06T07:27:34.496Z,12.38
2023-04-06T07:32:37.542Z,11.18
2023-04-06T07:37:39.620Z,12.43
2023-04-06T07:42:41.360Z,9.55
2023-04-06T07:47:43.699Z,10.30
2023-04-06T07:52:45.394Z,24.25
2023-04-06T07:57:47.239Z,9.07
2023-04-06T08:02:49.084Z,13.50
2023-04-06T08:07:51.182Z,10.98
2023-04-06T08:12:53.443Z,12.25
2023-04-06T08:17:55.070Z,13.10
2023-04-06T08:22:56.662Z,12.15
2023-04-06T08:27:58.415Z,12.45
2023-04-06T08:33:00.053Z,9.15
2023-04-06T08:38:01.793Z,11.05
2023-04-06T08:43:06.575Z,12.88
2023-04-06T08:48:09.285Z,11.18
2023-04-06T08:53:12.895Z,11.05
2023-04-06T08:58:24.062Z,14.85
2023-04-06T09:03:38.287Z,13.25
2023-04-06T09:08:41.931Z,11.30
2023-04-06T09:13:47.438Z,10.30
2023-04-06T09:18:50.571Z,12.17
2023-04-06T09:24:02.926Z,13.10
2023-04-06T09:29:04.723Z,13.73
2023-04-06T09:34:06.825Z,14.32
2023-04-06T09:39:08.752Z,12.77
2023-04-06T09:44:13.716Z,10.50
2023-04-06T09:49:15.390Z,13.32
2023-04-06T09:54:20.675Z,13.52
2023-04-06T09:59:45.146Z,12.27
2023-04-06T10:05:24.226Z,12.73
2023-04-06T10:10:26.654Z,15.40
2023-04-06T10:15:30.031Z,13.85
2023-04-06T10:20:40.981Z,14.18
2023-04-06T10:25:57.278Z,13.48
2023-04-06T10:31:01.091Z,15.43
2023-04-06T10:36:16.716Z,14.25
2023-04-06T10:41:18.510Z,14.83
2023-04-06T10:46:32.531Z,14.45
2023-04-06T10:51:38.793Z,14.55
2023-04-06T10:56:40.502Z,15.60
2023-04-06T11:01:45.806Z,15.93
2023-04-06T11:06:49.125Z,15.70
2023-04-06T11:11:50.846Z,14.77
2023-04-06T11:16:54.915Z,16.90
2023-04-06T11:21:59.408Z,16.80
2023-04-06T11:27:01.537Z,16.38
2023-04-06T11:32:04.960Z,16.38
2023-04-06T11:37:11.560Z,17.15
2023-04-06T11:42:13.304Z,13.82
2023-04-06T11:47:15.123Z,18.45
2023-04-06T11:52:28.418Z,17.92
2023-04-06T11:57:30.200Z,15.48
2023-04-06T12:02:32.040Z,16.83
2023-04-06T12:07:34.102Z,12.25
2023-04-06T12:12:35.974Z,12.82
2023-04-06T12:17:37.622Z,10.32
2023-04-06T12:22:39.677Z,14.48
2023-04-06T12:27:41.409Z,12.38
2023-04-06T12:32:43.069Z,12.82
2023-04-06T12:37:44.953Z,14.18
2023-04-06T12:42:47.194Z,10.85
2023-04-06T12:47:49.123Z,11.80
2023-04-06T12:52:50.855Z,9.38
2023-04-06T12:57:52.541Z,11.63
2023-04-06T13:02:54.241Z,10.02
2023-04-06T13:07:56.026Z,9.93
2023-04-06T13:12:57.962Z,9.48
2023-04-06T13:17:59.628Z,8.85
2023-04-06T13:23:01.525Z,9.45
2023-04-06T13:28:03.430Z,10.40
2023-04-06T13:33:05.325Z,13.13
2023-04-06T13:38:07.275Z,11.82
2023-04-06T13:43:09.299Z,10.63
2023-04-06T13:48:11.653Z,10.25
2023-04-06T13:53:14.018Z,10.02
2023-04-06T13:58:15.646Z,11.45
2023-04-06T14:03:17.421Z,11.38
2023-04-06T14:08:19.035Z,12.63
2023-04-06T14:13:21.120Z,10.57
2023-04-06T14:18:23.245Z,8.52
2023-04-06T14:23:24.951Z,9.07
2023-04-06T14:28:26.577Z,9.10
2023-04-06T14:33:28.453Z,9.55
2023-04-06T14:38:30.005Z,7.32
2023-04-06T14:43:31.626Z,12.18
2023-04-06T14:48:33.460Z,8.07
2023-04-06T14:53:35.351Z,9.38
2023-04-06T14:58:37.152Z,9.40
2023-04-06T15:03:38.831Z,11.70
2023-04-06T15:08:40.710Z,11.05
2023-04-06T15:13:43.771Z,7.90
2023-04-06T15:18:45.499Z,7.82
2023-04-06T15:23:47.463Z,8.30
2023-04-06T15:28:49.466Z,7.90
2023-04-06T15:33:51.110Z,7.65
2023-04-06T15:38:53.353Z,8.85
2023-04-06T15:43:55.496Z,10.55
2023-04-06T15:48:57.610Z,18.08
2023-04-06T15:53:59.203Z,10.23
2023-04-06T15:59:00.872Z,13.82
2023-04-06T16:04:03.200Z,26.80
2023-04-06T16:09:05.054Z,13.57
2023-04-06T16:14:06.661Z,13.90
2023-04-06T16:19:08.250Z,11.65
2023-04-06T16:24:09.993Z,10.45
2023-04-06T16:29:11.891Z,10.88
2023-04-06T16:34:14.290Z,10.18
2023-04-06T16:39:16.101Z,10.07
2023-04-06T16:44:17.939Z,11.55
2023-04-06T16:49:19.665Z,11.93
2023-04-06T16:54:21.420Z,11.32
2023-04-06T16:59:22.961Z,10.00
2023-04-06T17:04:24.771Z,10.50
2023-04-06T17:09:26.358Z,11.75
2023-04-06T17:14:28.111Z,17.60
2023-04-06T17:19:30.016Z,14.02
2023-04-06T17:24:31.836Z,11.93
2023-04-06T17:29:35.902Z,13.43
2023-04-06T17:34:37.470Z,17.45
2023-04-06T17:39:39.282Z,16.05
2023-04-06T17:44:41.180Z,16.85
2023-04-06T17:49:43.034Z,19.00
2023-04-06T17:54:44.649Z,16.15
2023-04-06T17:59:46.326Z,19.88
2023-04-06T18:04:55.186Z,15.77
2023-04-06T18:09:57.187Z,19.63
2023-04-06T18:14:58.843Z,14.57
2023-04-06T18:20:00.543Z,15.13
2023-04-06T18:25:03.815Z,17.98
2023-04-06T18:30:06.037Z,19.48
2023-04-06T18:35:08.465Z,17.63
2023-04-06T18:40:31.706Z,16.45
2023-04-06T18:45:34.595Z,17.75
2023-04-06T18:50:36.283Z,19.95
2023-04-06T18:55:37.838Z,21.05
2023-04-06T19:00:42.758Z,19.02
2023-04-06T19:05:44.426Z,18.05
2023-04-06T19:10:45.919Z,18.40
2023-04-06T19:15:47.434Z,21.35
2023-04-06T19:20:48.981Z,22.60
2023-04-06T19:25:50.641Z,22.00
2023-04-06T19:30:52.323Z,19.13
2023-04-06T19:35:53.955Z,20.65
2023-04-06T19:40:55.562Z,15.52
2023-04-06T19:45:57.269Z,17.90
2023-04-06T19:50:58.827Z,24.63
2023-04-06T19:56:00.391Z,16.60
2023-04-06T20:01:02.438Z,19.23
2023-04-06T20:06:04.200Z,19.58
2023-04-06T20:11:06.178Z,20.80
2023-04-06T20:16:08.025Z,17.52
2023-04-06T20:21:10.273Z,20.15
2023-04-06T20:26:12.050Z,14.48
2023-04-06T20:31:13.753Z,17.67
2023-04-06T20:36:15.318Z,19.55
2023-04-06T20:41:16.873Z,17.92
2023-04-06T20:46:18.770Z,18.23
2023-04-06T20:51:21.667Z,18.92
2023-04-06T20:56:23.420Z,15.90
2023-04-06T21:01:24.992Z,16.58
2023-04-06T21:06:27.470Z,16.08
2023-04-06T21:11:29.095Z,18.38
2023-04-06T21:16:30.744Z,16.05
2023-04-06T21:21:32.358Z,16.40
2023-04-06T21:26:35.017Z,16.27
2023-04-06T21:31:36.851Z,17.05
2023-04-06T21:36:39.824Z,16.10
2023-04-06T21:41:41.514Z,17.20
2023-04-06T21:46:43.718Z,16.27
2023-04-06T21:51:45.973Z,17.60
2023-04-06T21:56:48.183Z,21.70
2023-04-06T22:01:50.078Z,19.85
2023-04-06T22:06:51.669Z,24.80
2023-04-06T22:11:53.799Z,25.15
2023-04-06T22:16:55.451Z,23.45
2023-04-06T22:21:57.715Z,23.83
2023-04-06T22:26:59.543Z,24.90
2023-04-06T22:32:01.260Z,24.27
2023-04-06T22:37:03.362Z,23.90
2023-04-06T22:42:05.096Z,24.52
2023-04-06T22:47:06.800Z,26.42
2023-04-06T22:52:12.138Z,23.42
2023-04-06T22:57:13.965Z,22.35
2023-04-06T23:02:15.529Z,22.95
2023-04-06T23:07:17.550Z,24.38
2023-04-06T23:12:19.238Z,24.98
2023-04-06T23:17:20.955Z,23.25
2023-04-06T23:22:22.981Z,26.58
2023-04-06T23:27:24.569Z,27.05
2023-04-06T23:32:26.245Z,20.73
2023-04-06T23:37:27.889Z,24.77
2023-04-06T23:42:29.519Z,29.25
2023-04-06T23:47:31.609Z,23.90
2023-04-06T23:52:33.553Z,28.13
2023-04-06T23:57:35.218Z,28.00
